Time;durP1;ratioP1;P1;durP2;ratioP2;P2;SDS_P1;SDS_P2;PMS_P1;PMS_P2;Temp;Humidity;BMP_temperature;BMP_pressure;BME280_temperature;BME280_humidity;BME280_pressure;Samples;Min_cycle;Max_cycle;Signal;HPM_P1;HPM_P2
2023/01/09 00:00:43;;;;;;;123.50;58.40;;;;;;;1.26;100.00;97997.88;272432;1274;22449;-89
2023/01/09 00:07:01;;;;;;;122.30;59.90;;;;;;;1.19;100.00;97987.98;272634;1277;22272;-88
2023/01/09 00:13:03;;;;;;;120.80;56.20;;;;;;;1.06;100.00;97986.17;272522;1275;22305;-88
2023/01/09 00:19:04;;;;;;;114.20;56.00;;;;;;;0.96;100.00;97984.77;272073;1274;23269;-90
2023/01/09 00:25:07;;;;;;;112.00;59.00;;;;;;;0.89;100.00;97977.07;268931;1275;22602;-88
2023/01/09 00:31:09;;;;;;;107.50;58.30;;;;;;;0.81;100.00;97983.89;269143;1275;24234;-88
2023/01/09 00:37:12;;;;;;;111.70;56.50;;;;;;;0.71;100.00;97982.09;268904;1276;22660;-89
2023/01/09 00:43:14;;;;;;;104.70;54.30;;;;;;;0.61;100.00;97982.53;269249;1274;22541;-88
2023/01/09 00:49:16;;;;;;;97.80;50.60;;;;;;;0.44;100.00;97983.67;269642;1274;23018;-89
2023/01/09 00:55:18;;;;;;;98.60;53.90;;;;;;;0.34;100.00;97978.52;270142;1276;22455;-89
2023/01/09 01:01:19;;;;;;;101.70;54.30;;;;;;;0.25;100.00;97979.08;272576;1277;22244;-88
2023/01/09 01:07:41;;;;;;;104.00;53.90;;;;;;;0.16;100.00;97970.22;272598;1274;22450;-89
2023/01/09 01:13:43;;;;;;;100.70;50.30;;;;;;;0.10;100.00;97967.23;271546;1275;22426;-88
2023/01/09 01:19:45;;;;;;;99.40;51.10;;;;;;;0.05;100.00;97968.58;272595;1273;22422;-89
2023/01/09 01:25:48;;;;;;;96.60;48.70;;;;;;;-0.01;100.00;97963.95;269499;1274;22567;-88
2023/01/09 01:31:52;;;;;;;107.50;54.50;;;;;;;-0.06;100.00;97955.23;269716;1275;22543;-88
2023/01/09 01:37:54;;;;;;;106.90;53.40;;;;;;;-0.08;100.00;97953.09;269532;1275;25306;-88
2023/01/09 01:44:03;;;;;;;101.90;53.30;;;;;;;-0.10;100.00;97949.91;272165;1275;22228;-88
2023/01/09 01:50:26;;;;;;;109.60;54.60;;;;;;;-0.14;100.00;97944.08;272540;1276;22289;-88
2023/01/09 01:56:32;;;;;;;102.70;51.70;;;;;;;-0.19;100.00;97938.26;272572;1277;22398;-88
2023/01/09 02:02:34;;;;;;;98.50;49.80;;;;;;;-0.27;100.00;97944.84;272554;1277;22329;-87
2023/01/09 02:08:39;;;;;;;98.80;53.20;;;;;;;-0.35;100.00;97939.63;272558;1274;22381;-88
2023/01/09 02:14:41;;;;;;;107.60;55.10;;;;;;;-0.36;100.00;97928.32;272530;1271;22363;-89
2023/01/09 02:20:58;;;;;;;107.60;56.20;;;;;;;-0.34;100.00;97929.54;272567;1271;22398;-88
2023/01/09 02:27:23;;;;;;;122.80;60.10;;;;;;;-0.30;100.00;97929.77;272498;1278;23707;-88
2023/01/09 02:34:06;;;;;;;107.30;56.30;;;;;;;-0.31;100.00;97929.81;272559;1274;22453;-89
2023/01/09 02:40:21;;;;;;;99.40;51.20;;;;;;;-0.39;100.00;97926.34;272540;1276;22439;-88
2023/01/09 02:46:23;;;;;;;96.80;53.70;;;;;;;-0.45;100.00;97922.21;272427;1275;22233;-88
2023/01/09 02:52:46;;;;;;;110.20;57.30;;;;;;;-0.46;100.00;97916.59;272516;1275;22391;-89
2023/01/09 02:59:02;;;;;;;122.70;63.30;;;;;;;-0.46;100.00;97928.17;272590;1275;22349;-88
2023/01/09 03:05:10;;;;;;;112.90;57.40;;;;;;;-0.51;100.00;97931.83;272592;1274;22271;-90
2023/01/09 03:11:12;;;;;;;109.80;58.60;;;;;;;-0.59;100.00;97932.76;272498;1276;22375;-89
2023/01/09 03:17:18;;;;;;;111.10;57.00;;;;;;;-0.68;100.00;97923.35;272493;1275;22409;-88
2023/01/09 03:23:21;;;;;;;140.90;68.30;;;;;;;-0.76;100.00;97913.38;272492;1270;23167;-89
2023/01/09 03:29:23;;;;;;;123.60;66.30;;;;;;;-0.77;100.00;97901.23;272646;1275;22331;-88
2023/01/09 03:35:25;;;;;;;119.60;62.20;;;;;;;-0.72;100.00;97904.38;272576;1275;22234;-89
2023/01/09 03:41:27;;;;;;;117.70;59.00;;;;;;;-0.72;100.00;97892.71;272638;1276;22854;-88
2023/01/09 03:47:32;;;;;;;124.80;63.50;;;;;;;-0.69;100.00;97875.77;272603;1276;22272;-90
2023/01/09 03:53:34;;;;;;;110.40;59.90;;;;;;;-0.64;100.00;97865.52;272646;1274;22392;-88
2023/01/09 03:59:36;;;;;;;118.20;59.40;;;;;;;-0.59;100.00;97866.23;272586;1276;23003;-89
2023/01/09 04:05:38;;;;;;;118.70;60.80;;;;;;;-0.43;100.00;97845.72;272592;1274;22211;-89
2023/01/09 04:11:40;;;;;;;132.40;61.60;;;;;;;-0.26;100.00;97829.64;272648;1273;22240;-90
2023/01/09 04:17:42;;;;;;;139.40;68.50;;;;;;;-0.12;100.00;97821.36;272539;1273;23039;-90
2023/01/09 04:23:44;;;;;;;128.10;64.80;;;;;;;-0.04;100.00;97820.40;272547;1276;22418;-89
2023/01/09 04:29:46;;;;;;;138.60;68.50;;;;;;;0.00;100.00;97815.23;272424;1276;22187;-88
2023/01/09 04:35:48;;;;;;;130.00;67.10;;;;;;;0.08;100.00;97813.78;272618;1275;23181;-89
2023/01/09 04:41:52;;;;;;;139.40;68.00;;;;;;;0.18;100.00;97803.90;272555;1274;23544;-88
2023/01/09 04:47:53;;;;;;;131.30;64.70;;;;;;;0.26;100.00;97791.91;272662;1277;22335;-90
2023/01/09 04:53:55;;;;;;;124.90;65.00;;;;;;;0.29;100.00;97786.86;272645;1267;22344;-89
2023/01/09 04:59:58;;;;;;;136.80;67.80;;;;;;;0.27;100.00;97782.02;272477;1274;22368;-89
2023/01/09 05:06:00;;;;;;;115.10;60.70;;;;;;;0.26;100.00;97778.92;272334;1276;50525;-89
2023/01/09 05:12:02;;;;;;;106.30;55.00;;;;;;;0.29;100.00;97777.55;272370;1276;23786;-89
2023/01/09 05:18:04;;;;;;;103.70;52.50;;;;;;;0.34;100.00;97769.40;272477;1273;22471;-89
2023/01/09 05:24:07;;;;;;;111.90;54.10;;;;;;;0.40;100.00;97770.08;272640;1275;22221;-89
2023/01/09 05:30:09;;;;;;;103.00;52.10;;;;;;;0.48;100.00;97765.08;272561;1275;22203;-89
2023/01/09 05:36:11;;;;;;;106.60;55.50;;;;;;;0.54;100.00;97764.56;272605;1275;22306;-89
2023/01/09 05:42:13;;;;;;;93.70;50.20;;;;;;;0.57;100.00;97767.59;272694;1274;22376;-89
2023/01/09 05:48:15;;;;;;;93.40;48.50;;;;;;;0.61;100.00;97760.55;272519;1276;22242;-90
2023/01/09 05:54:17;;;;;;;93.30;49.00;;;;;;;0.66;100.00;97758.63;272520;1273;23154;-88
2023/01/09 06:00:19;;;;;;;98.10;50.80;;;;;;;0.73;100.00;97756.29;272596;1275;23530;-88
2023/01/09 06:06:23;;;;;;;93.90;49.30;;;;;;;0.78;100.00;97756.29;272497;1275;23319;-89
2023/01/09 06:12:25;;;;;;;92.40;50.90;;;;;;;0.83;100.00;97755.05;272580;1275;22616;-89
2023/01/09 06:18:31;;;;;;;83.60;44.00;;;;;;;0.88;100.00;97745.55;272373;1275;22301;-89
2023/01/09 06:24:36;;;;;;;88.70;46.20;;;;;;;0.91;100.00;97747.12;272513;1275;22357;-88
2023/01/09 06:30:39;;;;;;;91.00;48.60;;;;;;;0.96;100.00;97747.11;272549;1265;22255;-89
2023/01/09 06:36:41;;;;;;;84.80;46.40;;;;;;;1.02;100.00;97739.90;272429;1274;22280;-88
2023/01/09 06:42:44;;;;;;;86.70;47.20;;;;;;;1.06;100.00;97736.94;272435;1275;22179;-88
2023/01/09 06:48:46;;;;;;;87.60;47.00;;;;;;;1.07;100.00;97732.55;272441;1273;22878;-88
2023/01/09 06:54:48;;;;;;;88.40;46.40;;;;;;;1.05;100.00;97720.10;272393;1274;23223;-89
2023/01/09 07:00:50;;;;;;;82.90;45.70;;;;;;;1.05;100.00;97718.88;272549;1275;23444;-88
2023/01/09 07:06:52;;;;;;;79.80;43.10;;;;;;;1.08;100.00;97718.36;272499;1275;22191;-89
2023/01/09 07:12:54;;;;;;;80.90;43.20;;;;;;;1.11;100.00;97724.74;272490;1267;22964;-88
2023/01/09 07:18:56;;;;;;;83.00;43.50;;;;;;;1.12;100.00;97726.92;271865;1264;410374;-89
2023/01/09 09:34:49;;;;;;;143.00;87.60;;;;;;;3.18;100.00;97684.38;276818;1260;23756;-89
2023/01/09 09:44:41;;;;;;;150.80;87.70;;;;;;;3.34;100.00;97673.38;276301;1260;22792;-89
2023/01/09 09:54:48;;;;;;;163.40;95.00;;;;;;;3.71;100.00;97655.95;277803;1252;22250;-90
2023/01/09 10:00:49;;;;;;;150.30;86.90;;;;;;;3.82;100.00;97660.67;276758;1260;22517;-89
2023/01/09 10:07:04;;;;;;;128.00;74.40;;;;;;;3.87;100.00;97662.08;277073;1260;23573;-90
2023/01/09 10:20:10;;;;;;;126.20;73.30;;;;;;;4.17;100.00;97646.90;275222;1260;22400;-89
2023/01/09 10:26:24;;;;;;;137.60;80.70;;;;;;;4.38;100.00;97644.66;278236;1260;23171;-90
2023/01/09 10:33:00;;;;;;;123.50;71.70;;;;;;;4.46;100.00;97632.77;276790;1260;22475;-89
2023/01/09 10:39:07;;;;;;;109.90;66.10;;;;;;;4.55;100.00;97613.90;277784;1260;23098;-89
2023/01/09 10:45:15;;;;;;;;;;;;;;;4.72;100.00;97599.86;278624;1249;22531;-90
2023/01/09 10:51:23;;;;;;;72.80;42.30;;;;;;;4.93;100.00;97595.06;280065;1249;22373;-90
2023/01/09 10:57:49;;;;;;;62.50;36.40;;;;;;;5.17;100.00;97589.34;279445;1249;22382;-90
2023/01/09 11:03:51;;;;;;;53.40;29.90;;;;;;;5.48;100.00;97577.61;279269;1249;22582;-90
2023/01/09 11:09:58;;;;;;;13.50;9.00;;;;;;;6.26;100.00;97571.86;279115;1249;22618;-91
2023/01/09 11:16:10;;;;;;;5.30;3.40;;;;;;;7.30;100.00;97572.67;279341;1249;23753;-89
2023/01/09 11:22:16;;;;;;;5.30;3.00;;;;;;;8.06;100.00;97570.89;278795;1247;22531;-91
2023/01/09 11:28:18;;;;;;;5.50;3.30;;;;;;;8.65;100.00;97571.83;278444;1249;22424;-91
2023/01/09 11:34:24;;;;;;;6.00;4.20;;;;;;;8.91;100.00;97567.44;279907;1249;22743;-91
2023/01/09 11:40:29;;;;;;;6.90;3.40;;;;;;;8.98;100.00;97557.81;279020;1249;23613;-90
2023/01/09 11:46:55;;;;;;;7.10;3.50;;;;;;;9.13;100.00;97552.72;279495;1249;22172;-90
2023/01/09 11:53:15;;;;;;;4.40;3.20;;;;;;;9.32;100.00;97554.00;277102;1247;22617;-90
2023/01/09 11:59:22;;;;;;;14.40;6.60;;;;;;;9.19;100.00;97558.86;277853;1249;22704;-89
2023/01/09 12:06:00;;;;;;;37.80;19.30;;;;;;;8.96;100.00;97566.40;277761;1249;25347;-91
2023/01/09 12:12:20;;;;;;;29.00;17.80;;;;;;;8.61;100.00;97568.42;279031;1249;22883;-91
2023/01/09 12:18:24;;;;;;;39.00;19.00;;;;;;;8.33;100.00;97566.19;280056;1249;22334;-90
2023/01/09 12:24:31;;;;;;;38.60;19.20;;;;;;;8.15;100.00;97565.74;279964;1248;22409;-91
2023/01/09 12:30:32;;;;;;;;;;;;;;;8.01;100.00;97567.23;278297;1249;22503;-90
2023/01/09 12:36:45;;;;;;;37.10;18.50;;;;;;;7.92;100.00;97564.22;280124;1249;22282;-92
2023/01/09 12:42:52;;;;;;;34.00;19.30;;;;;;;7.86;100.00;97562.59;277327;1248;22530;-90
2023/01/09 12:48:59;;;;;;;;;;;;;;;7.79;100.00;97562.29;279213;1249;23365;-90
2023/01/09 12:55:13;;;;;;;63.10;28.00;;;;;;;7.72;100.00;97559.73;280111;1249;23158;-90
2023/01/09 13:01:24;;;;;;;50.60;27.90;;;;;;;7.70;100.00;97556.38;279628;1248;22408;-90
2023/01/09 13:07:42;;;;;;;37.90;22.30;;;;;;;7.70;100.00;97559.49;279847;1248;22279;-90
2023/01/09 13:13:57;;;;;;;46.60;22.40;;;;;;;7.66;100.00;97553.89;277243;1249;24615;-90
2023/01/09 13:19:58;;;;;;;45.30;24.20;;;;;;;7.63;100.00;97549.69;277730;1248;22554;-90
2023/01/09 13:26:14;;;;;;;53.70;26.60;;;;;;;7.59;100.00;97553.83;278971;1249;24035;-90
2023/01/09 13:32:28;;;;;;;70.90;33.60;;;;;;;7.57;100.00;97554.21;277096;1248;22501;-89
2023/01/09 13:38:34;;;;;;;60.70;31.80;;;;;;;7.59;100.00;97557.39;278647;1248;23114;-91
2023/01/09 13:45:00;;;;;;;70.00;35.90;;;;;;;7.59;100.00;97559.58;279064;1249;23308;-91
2023/01/09 13:51:55;;;;;;;67.30;33.90;;;;;;;7.57;100.00;97565.33;277599;1248;22371;-91
2023/01/09 13:58:12;;;;;;;71.70;37.10;;;;;;;7.52;100.00;97588.83;279972;1249;22412;-91
2023/01/09 14:04:49;;;;;;;58.90;32.70;;;;;;;7.45;100.00;97603.45;279820;1247;22444;-91
2023/01/09 14:11:05;;;;;;;66.90;35.40;;;;;;;7.41;100.00;97612.92;279638;1249;22485;-90
2023/01/09 14:17:24;;;;;;;60.60;31.20;;;;;;;7.37;100.00;97626.61;280172;1249;22378;-89
2023/01/09 14:23:28;;;;;;;53.80;28.70;;;;;;;7.30;100.00;97637.57;279644;1249;22205;-91
2023/01/09 14:29:33;;;;;;;50.10;26.20;;;;;;;7.25;100.00;97646.41;279687;1244;22362;-90
2023/01/09 14:35:40;;;;;;;44.30;22.90;;;;;;;7.20;100.00;97645.94;280264;1249;23560;-89
2023/01/09 14:41:56;;;;;;;43.50;20.40;;;;;;;7.13;100.00;97645.36;279781;1248;22359;-90
2023/01/09 14:48:14;;;;;;;32.00;18.20;;;;;;;7.06;100.00;97645.73;279985;1248;22369;-91
2023/01/09 14:54:32;;;;;;;41.80;21.60;;;;;;;7.05;100.00;97647.14;277977;1248;207034;-90
2023/01/09 15:00:34;;;;;;;38.90;20.40;;;;;;;7.05;100.00;97654.83;278500;1254;79477;-90
2023/01/09 15:06:39;;;;;;;49.70;27.10;;;;;;;7.00;100.00;97662.83;278628;1254;22426;-90
2023/01/09 15:12:45;;;;;;;44.30;23.70;;;;;;;6.96;100.00;97666.85;278420;1254;23030;-91
2023/01/09 15:19:02;;;;;;;46.40;23.70;;;;;;;6.93;100.00;97669.78;278494;1254;22375;-91
2023/01/09 15:33:34;;;;;;;16.80;9.70;;;;;;;6.90;100.00;97690.22;277890;1254;22538;-89
2023/01/09 15:40:43;;;;;;;17.10;8.80;;;;;;;6.94;100.00;97698.79;278063;1254;23370;-89
2023/01/09 15:46:48;;;;;;;12.50;4.80;;;;;;;7.26;100.00;97710.52;277634;1254;22265;-90
2023/01/09 15:52:50;;;;;;;6.40;3.70;;;;;;;7.48;100.00;97722.09;277354;1254;22559;-90
2023/01/09 15:59:22;;;;;;;10.30;5.10;;;;;;;7.60;100.00;97737.30;276355;1254;22382;-90
2023/01/09 16:06:12;;;;;;;20.10;10.90;;;;;;;7.64;100.00;97747.65;278004;1254;22510;-91
2023/01/09 16:12:18;;;;;;;19.50;10.20;;;;;;;7.62;100.00;97758.94;276792;1254;22378;-91
2023/01/09 16:19:15;;;;;;;14.30;9.00;;;;;;;7.56;100.00;97764.74;278785;1254;23175;-91
2023/01/09 16:25:40;;;;;;;12.50;7.60;;;;;;;7.45;100.00;97763.15;277985;1254;23928;-90
2023/01/09 16:31:47;;;;;;;10.80;6.60;;;;;;;7.37;100.00;97767.17;277793;1254;23264;-91
2023/01/09 16:37:54;;;;;;;12.30;7.20;;;;;;;7.34;100.00;97767.61;278094;1253;22702;-90
2023/01/09 16:44:07;;;;;;;12.70;6.90;;;;;;;7.31;100.00;97766.84;277013;1254;22855;-91
2023/01/09 16:50:18;;;;;;;16.30;7.40;;;;;;;7.27;100.00;97766.88;277712;1254;24191;-91
2023/01/09 16:56:23;;;;;;;16.80;10.00;;;;;;;7.22;100.00;97774.27;276711;1251;22433;-91
2023/01/09 17:02:32;;;;;;;20.30;10.10;;;;;;;7.17;100.00;97774.23;276815;1253;22543;-90
2023/01/09 17:08:39;;;;;;;21.20;12.70;;;;;;;7.13;100.00;97783.92;277335;1249;23223;-90
2023/01/09 17:14:45;;;;;;;20.30;13.20;;;;;;;7.10;100.00;97799.55;279152;1254;23717;-90
2023/01/09 17:20:59;;;;;;;28.80;17.70;;;;;;;7.07;100.00;97805.21;278936;1254;23870;-91
2023/01/09 17:33:26;;;;;;;20.20;12.00;;;;;;;7.06;100.00;97821.12;277723;1254;23368;-91
2023/01/09 17:39:33;;;;;;;18.90;11.80;;;;;;;7.02;100.00;97824.83;277844;1254;22656;-91
2023/01/09 17:45:39;;;;;;;22.80;14.30;;;;;;;6.95;100.00;97831.48;277155;1238;23897;-90
2023/01/09 17:51:41;;;;;;;20.80;12.90;;;;;;;6.88;100.00;97838.66;278830;1254;23220;-90
2023/01/09 17:57:43;;;;;;;25.00;14.60;;;;;;;6.85;100.00;97845.17;277757;1254;22565;-90
2023/01/09 18:03:47;;;;;;;27.90;15.80;;;;;;;6.82;100.00;97841.50;279159;1254;22213;-90
2023/01/09 18:09:49;;;;;;;26.10;15.40;;;;;;;6.82;100.00;97847.32;278919;1254;22318;-90
2023/01/09 18:15:50;;;;;;;26.40;17.00;;;;;;;6.82;100.00;97851.12;278160;1254;22502;-90
2023/01/09 18:21:51;;;;;;;42.80;20.70;;;;;;;6.81;100.00;97856.64;276966;1254;22557;-90
2023/01/09 18:27:56;;;;;;;52.00;23.40;;;;;;;6.81;100.00;97859.59;277892;1254;22562;-90
2023/01/09 18:34:04;;;;;;;43.50;23.00;;;;;;;6.77;100.00;97859.55;278125;1254;22411;-90
2023/01/09 18:40:07;;;;;;;51.80;24.10;;;;;;;6.73;100.00;97862.23;278236;1254;22528;-90
2023/01/09 18:46:08;;;;;;;41.10;23.10;;;;;;;6.64;100.00;97859.84;277184;1254;22495;-90
2023/01/09 18:52:10;;;;;;;39.40;21.70;;;;;;;6.58;100.00;97863.59;277513;1252;24216;-90
2023/01/09 18:58:13;;;;;;;40.60;23.10;;;;;;;6.51;100.00;97871.61;277888;1254;22527;-91
2023/01/09 19:04:19;;;;;;;42.40;21.80;;;;;;;6.51;100.00;97876.98;276844;1239;23342;-90
2023/01/09 19:10:20;;;;;;;37.10;22.00;;;;;;;6.54;100.00;97882.81;278438;1254;22508;-91
2023/01/09 19:16:25;;;;;;;35.00;20.60;;;;;;;6.54;100.00;97887.48;279424;1248;22736;-92
2023/01/09 19:22:26;;;;;;;36.20;20.60;;;;;;;6.55;100.00;97894.02;277729;1254;23566;-91
2023/01/09 19:28:32;;;;;;;42.00;22.00;;;;;;;6.52;100.00;97899.27;279043;1254;22517;-90
2023/01/09 19:34:38;;;;;;;39.40;21.70;;;;;;;6.50;100.00;97902.43;278953;1254;22193;-91
2023/01/09 19:40:48;;;;;;;39.10;19.80;;;;;;;6.51;100.00;97903.36;277200;1252;1242900;-90
2023/01/09 19:46:50;;;;;;;40.10;22.60;;;;;;;6.49;100.00;97899.24;277017;1254;22451;-91
2023/01/09 19:52:55;;;;;;;35.50;22.50;;;;;;;6.47;100.00;97900.00;278058;1254;22374;-90
2023/01/09 19:58:58;;;;;;;36.10;21.00;;;;;;;6.48;100.00;97904.66;277890;1249;23329;-91
2023/01/09 20:05:00;;;;;;;38.50;22.40;;;;;;;6.52;100.00;97905.64;278191;1252;22639;-91
2023/01/09 20:11:05;;;;;;;41.30;23.40;;;;;;;6.51;100.00;97908.20;276766;1254;22202;-90
2023/01/09 20:17:10;;;;;;;41.50;25.30;;;;;;;6.50;100.00;97920.85;278293;1254;22386;-91
2023/01/09 20:23:15;;;;;;;47.20;26.80;;;;;;;6.48;100.00;97918.51;278667;1254;22400;-90
2023/01/09 20:29:18;;;;;;;43.40;25.20;;;;;;;6.46;100.00;97914.14;278446;1254;22184;-90
2023/01/09 20:35:21;;;;;;;50.40;24.30;;;;;;;6.43;100.00;97914.73;277916;1254;23635;-90
2023/01/09 20:41:24;;;;;;;45.40;25.90;;;;;;;6.39;100.00;97917.86;277553;1254;22390;-91
2023/01/09 20:47:27;;;;;;;54.70;29.80;;;;;;;6.38;100.00;97921.81;279133;1254;23209;-90
2023/01/09 20:53:29;;;;;;;53.60;28.50;;;;;;;6.39;100.00;97923.00;277457;1254;23057;-91
2023/01/09 20:59:37;;;;;;;60.90;32.00;;;;;;;6.40;100.00;97925.88;278394;1254;24416;-90
2023/01/09 21:05:44;;;;;;;48.60;27.50;;;;;;;6.37;100.00;97925.93;277241;1248;22533;-91
2023/01/09 21:11:48;;;;;;;48.50;26.70;;;;;;;6.28;100.00;97933.59;277537;1254;22868;-90
2023/01/09 21:17:50;;;;;;;49.00;28.10;;;;;;;6.20;100.00;97934.73;277913;1254;24207;-91
2023/01/09 21:23:55;;;;;;;42.40;25.50;;;;;;;6.18;100.00;97937.36;277395;1254;22462;-90
2023/01/09 21:30:05;;;;;;;51.60;30.30;;;;;;;6.13;100.00;97948.17;277127;1254;23335;-91
2023/01/09 21:36:07;;;;;;;56.80;32.40;;;;;;;6.09;100.00;97960.31;278618;1254;22393;-90
2023/01/09 21:48:29;;;;;;;64.50;36.40;;;;;;;6.06;100.00;97971.77;277415;1254;22509;-90
2023/01/09 21:54:32;;;;;;;80.30;46.40;;;;;;;6.06;100.00;97974.80;277068;1254;22550;-90
2023/01/09 22:00:36;;;;;;;83.70;45.70;;;;;;;6.04;100.00;97979.81;276253;1252;22562;-90
2023/01/09 22:06:43;;;;;;;72.10;40.80;;;;;;;6.01;100.00;97989.71;276576;1254;22497;-90
2023/01/09 22:13:14;;;;;;;69.70;41.20;;;;;;;5.98;100.00;97992.08;277475;1244;22621;-90
2023/01/09 22:19:41;;;;;;;63.90;38.60;;;;;;;5.95;100.00;97991.41;278698;1245;22542;-89
2023/01/09 22:25:47;;;;;;;68.20;41.70;;;;;;;5.94;100.00;97994.04;276064;1251;22574;-89
2023/01/09 22:31:49;;;;;;;72.10;40.20;;;;;;;5.90;100.00;97998.48;276191;1254;22597;-90
2023/01/09 22:37:51;;;;;;;68.40;42.10;;;;;;;5.87;100.00;98000.15;276292;1254;22531;-89
2023/01/09 22:43:57;;;;;;;72.20;39.90;;;;;;;5.83;100.00;98000.96;276375;1254;22610;-90
2023/01/09 22:50:00;;;;;;;70.90;42.90;;;;;;;5.77;100.00;98003.02;275695;1254;23150;-88
2023/01/09 22:56:27;;;;;;;71.50;42.70;;;;;;;5.74;100.00;98010.10;276312;1251;22588;-88
2023/01/09 23:02:30;;;;;;;68.40;41.50;;;;;;;5.69;100.00;98016.07;276192;1254;22640;-88
2023/01/09 23:08:51;;;;;;;87.50;48.10;;;;;;;5.63;100.00;98019.32;276990;1254;23777;-88
2023/01/09 23:22:12;;;;;;;93.00;52.50;;;;;;;5.58;100.00;98020.80;279089;1251;22192;-88
2023/01/09 23:28:13;;;;;;;96.90;53.70;;;;;;;5.57;100.00;98024.60;275723;1254;23859;-88
2023/01/09 23:49:32;;;;;;;101.20;58.90;;;;;;;5.53;100.00;98033.07;278077;1260;23301;-88
2023/01/09 23:55:34;;;;;;;98.10;56.80;;;;;;;5.51;100.00;98033.51;274917;1260;22978;-89
